Cyprus Cement — C6UP5 — position and weather

sailwx.info

Track history (hours):
 
Tides and Currents Weather Stations Pressure Air Temp Water Temp Dewpoint Dewpoint Depression Visibility Wind Speed Wind Dir Waves Ship Positions

Cyprus Cement

Last reported at 2014-Oct-30 19:12 UTC. Time now 2014-Oct-31 07:02 UTC.
Position N 59°04' E 009°42'.

Length 97 m; draft 4.6 m.

Type: Cargo ship. MMSI: 311988000.

Date/timePositionNaut miles runAvg speedWind from/ knotsBaromVisibWave heightAir tempDewpointWater temp
2014-Oct-30 19:12N 59°04' E 009°42'47 9.7
2014-Oct-30 14:20N 58°24' E 008°52'911.3
2014-Oct-30 13:33N 58°18' E 008°41'1111.2
2014-Oct-30 12:33N 58°10' E 008°26'65 4.0
2014-Oct-29 20:33N 58°06' E 006°24'1211.8
2014-Oct-29 19:33N 58°14' E 006°07'1212.2
2014-Oct-29 18:33N 58°22' E 005°50'1212.2
2014-Oct-29 17:33N 58°31' E 005°34'1512.8
2014-Oct-29 16:26N 58°45' E 005°25'1010.9
2014-Oct-29 15:33N 58°54' E 005°32'9 8.7
2014-Oct-29 14:33N 59°01' E 005°40'8 7.9
2014-Oct-29 13:33N 58°54' E 005°45'0 0.2
2014-Oct-29 12:31N 58°54' E 005°45'0 0.0
2014-Oct-29 11:31N 58°54' E 005°45'0 0.0
2014-Oct-29 10:31N 58°54' E 005°45'0 0.0
2014-Oct-29 09:31N 58°54' E 005°45'0 0.0
2014-Oct-29 08:33N 58°54' E 005°45'8 8.0
2014-Oct-29 07:33N 59°02' E 005°46'1111.0
2014-Oct-29 06:34N 59°07' E 005°27'1111.1
2014-Oct-29 05:33N 59°18' E 005°20'1010.4
2014-Oct-29 04:33N 59°27' E 005°13'282 7.2
2014-Oct-27 13:31N 63°38' E 009°47'1010.9
2014-Oct-27 12:33N 63°29' E 009°58'1111.1
2014-Oct-27 11:33N 63°32' E 010°22'1110.8
2014-Oct-27 10:33N 63°38' E 010°42'1110.9
2014-Oct-27 09:33N 63°44' E 011°03'8 0.5
2014-Oct-26 17:22N 63°47' E 011°20'5 6.6
2014-Oct-26 16:33N 63°45' E 011°08'10 9.9
2014-Oct-26 15:34N 63°41' E 010°49'1211.6
2014-Oct-26 14:34N 63°32' E 010°31'6 6.1
2014-Oct-26 13:33N 63°27' E 010°25'0 0.0
2014-Oct-26 12:33N 63°27' E 010°25'0 0.0
2014-Oct-26 11:33N 63°27' E 010°25'0 0.0
2014-Oct-26 10:33N 63°27' E 010°25'0 0.0
2014-Oct-26 09:33N 63°27' E 010°25'0 0.0
2014-Oct-26 08:33N 63°27' E 010°25'0 0.0
2014-Oct-26 07:33N 63°27' E 010°25'0 0.0
2014-Oct-26 06:33N 63°27' E 010°25'0 0.0
2014-Oct-26 05:33N 63°27' E 010°25'0 0.0
2014-Oct-26 04:33N 63°27' E 010°25'0 0.0
2014-Oct-26 03:33N 63°27' E 010°25'0 0.0
2014-Oct-26 02:33N 63°27' E 010°25'0 0.0
2014-Oct-26 01:33N 63°27' E 010°25'0 0.0
2014-Oct-26 00:33N 63°27' E 010°25'0 0.0
2014-Oct-25 23:33N 63°27' E 010°25'0 0.0
2014-Oct-25 22:33N 63°27' E 010°25'0 0.0
2014-Oct-25 21:33N 63°27' E 010°25'0 0.0
2014-Oct-25 20:33N 63°27' E 010°25'0 0.0
2014-Oct-25 19:33N 63°27' E 010°25'0 0.0
2014-Oct-25 18:33N 63°27' E 010°25'0 0.0
2014-Oct-25 17:33N 63°27' E 010°25'0 0.0
2014-Oct-25 16:33N 63°27' E 010°25'0 0.0
2014-Oct-25 15:33N 63°27' E 010°25'0 0.0
2014-Oct-25 14:33N 63°27' E 010°25'0 0.0
2014-Oct-25 13:33N 63°27' E 010°25'0 0.0
2014-Oct-25 12:33N 63°27' E 010°25'0 0.0
2014-Oct-25 11:33N 63°27' E 010°25'0 0.0
2014-Oct-25 10:33N 63°27' E 010°25'0 0.0
2014-Oct-25 09:33N 63°27' E 010°25'0 0.0
2014-Oct-25 08:33N 63°27' E 010°25'0 0.0
2014-Oct-25 07:33N 63°27' E 010°25'0 0.0
2014-Oct-25 06:33N 63°27' E 010°25'0 0.0
2014-Oct-25 05:33N 63°27' E 010°25'0 0.0
2014-Oct-25 04:33N 63°27' E 010°25'0 0.0
2014-Oct-25 03:33N 63°27' E 010°25'0 0.0
2014-Oct-25 02:33N 63°27' E 010°25'0 0.0
2014-Oct-25 01:33N 63°27' E 010°25'0 0.0
2014-Oct-25 00:33N 63°27' E 010°25'0 0.0
2014-Oct-24 23:33N 63°27' E 010°25'0 0.0
2014-Oct-24 22:33N 63°27' E 010°25'0 0.0
2014-Oct-24 21:33N 63°27' E 010°25'0 0.0
2014-Oct-24 20:33N 63°27' E 010°25'0 0.0
2014-Oct-24 19:33N 63°27' E 010°25'0 0.0
2014-Oct-24 18:33N 63°27' E 010°25'0 0.0
2014-Oct-24 17:33N 63°27' E 010°25'0 0.0
2014-Oct-24 16:33N 63°27' E 010°25'0 0.0
2014-Oct-24 15:33N 63°27' E 010°25'0 0.0
2014-Oct-24 14:33N 63°27' E 010°25'0 0.0
2014-Oct-24 13:33N 63°27' E 010°25'0 0.0
2014-Oct-24 12:33N 63°27' E 010°25'0 0.0
2014-Oct-24 11:33N 63°27' E 010°25'0 0.0
2014-Oct-24 10:33N 63°27' E 010°25'0 0.0
2014-Oct-24 09:33N 63°27' E 010°25'0 0.0
2014-Oct-24 08:33N 63°27' E 010°25'0 0.0
2014-Oct-24 07:33N 63°27' E 010°25'0 0.0
2014-Oct-24 06:33N 63°27' E 010°25'0 0.0
2014-Oct-24 05:33N 63°27' E 010°25'0 0.0
2014-Oct-24 04:33N 63°27' E 010°25'0 0.0
2014-Oct-24 03:33N 63°27' E 010°25'0 0.0
2014-Oct-24 02:33N 63°27' E 010°25'0 0.0
2014-Oct-24 01:33N 63°27' E 010°25'0 0.0
2014-Oct-24 00:33N 63°27' E 010°25'0 0.0
2014-Oct-23 23:33N 63°27' E 010°25'0 0.0
2014-Oct-23 22:33N 63°27' E 010°25'0 0.0
2014-Oct-23 21:33N 63°27' E 010°25'0 0.0
2014-Oct-23 20:33N 63°27' E 010°25'0 0.0
2014-Oct-23 19:33N 63°27' E 010°25'0 0.0
2014-Oct-23 18:33N 63°27' E 010°25'0 0.0
2014-Oct-23 17:33N 63°27' E 010°25'0 0.4
2014-Oct-23 16:33N 63°27' E 010°25'9 9.3
2014-Oct-23 15:33N 63°28' E 010°04'1010.1
2014-Oct-23 14:33N 63°35' E 009°48'9 7.7
2014-Oct-23 13:22N 63°39' E 009°29'7910.1
2014-Oct-23 05:33N 64°46' E 011°03'1110.7
2014-Oct-23 04:33N 64°54' E 011°20'1110.6
2014-Oct-23 03:33N 65°02' E 011°38'1110.6
2014-Oct-23 02:32N 65°11' E 011°51'71 3.2
2014-Oct-22 04:32N 66°17' E 012°55'1110.3
2014-Oct-22 03:29N 66°28' E 012°59'9 8.3
2014-Oct-22 02:26N 66°36' E 013°04'2010.3
2014-Oct-22 00:30N 66°54' E 013°27'2010.1
2014-Oct-21 22:29N 67°09' E 014°02'910.1
2014-Oct-21 21:33N 67°17' E 014°14'10 9.8
2014-Oct-21 20:33N 67°26' E 014°26'9 9.1
2014-Oct-21 19:33N 67°34' E 014°20'10 9.6
2014-Oct-21 18:33N 67°44' E 014°19'  
Track history (hours):
 
Tides and Currents Weather Stations Pressure Air Temp Water Temp Dewpoint Dewpoint Depression Visibility Wind Speed Wind Dir Waves Ship Positions

Cyprus Cement

Last reported at 2014-Oct-30 19:12 UTC. Time now 2014-Oct-31 07:02 UTC.
Position N 59°04' E 009°42'.

Length 97 m; draft 4.6 m.

Type: Cargo ship. MMSI: 311988000.

Date/timePositionNaut miles runAvg speedWind from/ knotsBaromVisibWave heightAir tempDewpointWater temp
2014-Oct-30 19:12N 59°04' E 009°42'47 9.7
2014-Oct-30 14:20N 58°24' E 008°52'911.3
2014-Oct-30 13:33N 58°18' E 008°41'1111.2
2014-Oct-30 12:33N 58°10' E 008°26'65 4.0
2014-Oct-29 20:33N 58°06' E 006°24'1211.8
2014-Oct-29 19:33N 58°14' E 006°07'1212.2
2014-Oct-29 18:33N 58°22' E 005°50'1212.2
2014-Oct-29 17:33N 58°31' E 005°34'1512.8
2014-Oct-29 16:26N 58°45' E 005°25'1010.9
2014-Oct-29 15:33N 58°54' E 005°32'9 8.7
2014-Oct-29 14:33N 59°01' E 005°40'8 7.9
2014-Oct-29 13:33N 58°54' E 005°45'0 0.2
2014-Oct-29 12:31N 58°54' E 005°45'0 0.0
2014-Oct-29 11:31N 58°54' E 005°45'0 0.0
2014-Oct-29 10:31N 58°54' E 005°45'0 0.0
2014-Oct-29 09:31N 58°54' E 005°45'0 0.0
2014-Oct-29 08:33N 58°54' E 005°45'8 8.0
2014-Oct-29 07:33N 59°02' E 005°46'1111.0
2014-Oct-29 06:34N 59°07' E 005°27'1111.1
2014-Oct-29 05:33N 59°18' E 005°20'1010.4
2014-Oct-29 04:33N 59°27' E 005°13'282 7.2
2014-Oct-27 13:31N 63°38' E 009°47'1010.9
2014-Oct-27 12:33N 63°29' E 009°58'1111.1
2014-Oct-27 11:33N 63°32' E 010°22'1110.8
2014-Oct-27 10:33N 63°38' E 010°42'1110.9
2014-Oct-27 09:33N 63°44' E 011°03'8 0.5
2014-Oct-26 17:22N 63°47' E 011°20'5 6.6
2014-Oct-26 16:33N 63°45' E 011°08'10 9.9
2014-Oct-26 15:34N 63°41' E 010°49'1211.6
2014-Oct-26 14:34N 63°32' E 010°31'6 6.1
2014-Oct-26 13:33N 63°27' E 010°25'0 0.0
2014-Oct-26 12:33N 63°27' E 010°25'0 0.0
2014-Oct-26 11:33N 63°27' E 010°25'0 0.0
2014-Oct-26 10:33N 63°27' E 010°25'0 0.0
2014-Oct-26 09:33N 63°27' E 010°25'0 0.0
2014-Oct-26 08:33N 63°27' E 010°25'0 0.0
2014-Oct-26 07:33N 63°27' E 010°25'0 0.0
2014-Oct-26 06:33N 63°27' E 010°25'0 0.0
2014-Oct-26 05:33N 63°27' E 010°25'0 0.0
2014-Oct-26 04:33N 63°27' E 010°25'0 0.0
2014-Oct-26 03:33N 63°27' E 010°25'0 0.0
2014-Oct-26 02:33N 63°27' E 010°25'0 0.0
2014-Oct-26 01:33N 63°27' E 010°25'0 0.0
2014-Oct-26 00:33N 63°27' E 010°25'0 0.0
2014-Oct-25 23:33N 63°27' E 010°25'0 0.0
2014-Oct-25 22:33N 63°27' E 010°25'0 0.0
2014-Oct-25 21:33N 63°27' E 010°25'0 0.0
2014-Oct-25 20:33N 63°27' E 010°25'0 0.0
2014-Oct-25 19:33N 63°27' E 010°25'0 0.0
2014-Oct-25 18:33N 63°27' E 010°25'0 0.0
2014-Oct-25 17:33N 63°27' E 010°25'0 0.0
2014-Oct-25 16:33N 63°27' E 010°25'0 0.0
2014-Oct-25 15:33N 63°27' E 010°25'0 0.0
2014-Oct-25 14:33N 63°27' E 010°25'0 0.0
2014-Oct-25 13:33N 63°27' E 010°25'0 0.0
2014-Oct-25 12:33N 63°27' E 010°25'0 0.0
2014-Oct-25 11:33N 63°27' E 010°25'0 0.0
2014-Oct-25 10:33N 63°27' E 010°25'0 0.0
2014-Oct-25 09:33N 63°27' E 010°25'0 0.0
2014-Oct-25 08:33N 63°27' E 010°25'0 0.0
2014-Oct-25 07:33N 63°27' E 010°25'0 0.0
2014-Oct-25 06:33N 63°27' E 010°25'0 0.0
2014-Oct-25 05:33N 63°27' E 010°25'0 0.0
2014-Oct-25 04:33N 63°27' E 010°25'0 0.0
2014-Oct-25 03:33N 63°27' E 010°25'0 0.0
2014-Oct-25 02:33N 63°27' E 010°25'0 0.0
2014-Oct-25 01:33N 63°27' E 010°25'0 0.0
2014-Oct-25 00:33N 63°27' E 010°25'0 0.0
2014-Oct-24 23:33N 63°27' E 010°25'0 0.0
2014-Oct-24 22:33N 63°27' E 010°25'0 0.0
2014-Oct-24 21:33N 63°27' E 010°25'0 0.0
2014-Oct-24 20:33N 63°27' E 010°25'0 0.0
2014-Oct-24 19:33N 63°27' E 010°25'0 0.0
2014-Oct-24 18:33N 63°27' E 010°25'0 0.0
2014-Oct-24 17:33N 63°27' E 010°25'0 0.0
2014-Oct-24 16:33N 63°27' E 010°25'0 0.0
2014-Oct-24 15:33N 63°27' E 010°25'0 0.0
2014-Oct-24 14:33N 63°27' E 010°25'0 0.0
2014-Oct-24 13:33N 63°27' E 010°25'0 0.0
2014-Oct-24 12:33N 63°27' E 010°25'0 0.0
2014-Oct-24 11:33N 63°27' E 010°25'0 0.0
2014-Oct-24 10:33N 63°27' E 010°25'0 0.0
2014-Oct-24 09:33N 63°27' E 010°25'0 0.0
2014-Oct-24 08:33N 63°27' E 010°25'0 0.0
2014-Oct-24 07:33N 63°27' E 010°25'0 0.0
2014-Oct-24 06:33N 63°27' E 010°25'0 0.0
2014-Oct-24 05:33N 63°27' E 010°25'0 0.0
2014-Oct-24 04:33N 63°27' E 010°25'0 0.0
2014-Oct-24 03:33N 63°27' E 010°25'0 0.0
2014-Oct-24 02:33N 63°27' E 010°25'0 0.0
2014-Oct-24 01:33N 63°27' E 010°25'0 0.0
2014-Oct-24 00:33N 63°27' E 010°25'0 0.0
2014-Oct-23 23:33N 63°27' E 010°25'0 0.0
2014-Oct-23 22:33N 63°27' E 010°25'0 0.0
2014-Oct-23 21:33N 63°27' E 010°25'0 0.0
2014-Oct-23 20:33N 63°27' E 010°25'0 0.0
2014-Oct-23 19:33N 63°27' E 010°25'0 0.0
2014-Oct-23 18:33N 63°27' E 010°25'0 0.0
2014-Oct-23 17:33N 63°27' E 010°25'0 0.4
2014-Oct-23 16:33N 63°27' E 010°25'9 9.3
2014-Oct-23 15:33N 63°28' E 010°04'1010.1
2014-Oct-23 14:33N 63°35' E 009°48'9 7.7
2014-Oct-23 13:22N 63°39' E 009°29'7910.1
2014-Oct-23 05:33N 64°46' E 011°03'1110.7
2014-Oct-23 04:33N 64°54' E 011°20'1110.6
2014-Oct-23 03:33N 65°02' E 011°38'1110.6
2014-Oct-23 02:32N 65°11' E 011°51'71 3.2
2014-Oct-22 04:32N 66°17' E 012°55'1110.3
2014-Oct-22 03:29N 66°28' E 012°59'9 8.3
2014-Oct-22 02:26N 66°36' E 013°04'2010.3
2014-Oct-22 00:30N 66°54' E 013°27'2010.1
2014-Oct-21 22:29N 67°09' E 014°02'910.1
2014-Oct-21 21:33N 67°17' E 014°14'10 9.8
2014-Oct-21 20:33N 67°26' E 014°26'9 9.1
2014-Oct-21 19:33N 67°34' E 014°20'10 9.6
2014-Oct-21 18:33N 67°44' E 014°19'  

Dump ship's entire track history